Aviation Digital Data Service (ADDS)

Output produced by METARs form (1110 UTC 17 June 2019)
found at http://www.aviationweather.gov/metar/data/
 
Forecast for: EHGG (GRONINGEN/EELDE , NL)
Text: TAF EHGG 170452Z 1706/1812 18005KT CAVOK
Forecast period: 0600 UTC 17 June 2019 to 1200 UTC 18 June 2019
Forecast type: FROM: standard forecast or significant change
Winds: from the S (180 degrees) at 6 MPH (5 knots; 2.6 m/s)
Visibility: 6 or more miles 10+ km)
Ceiling: unknown
Clouds: missing
Weather: NSW  (no significant weather)